Time;durP1;ratioP1;P1;durP2;ratioP2;P2;SDS_P1;SDS_P2;PMS_P1;PMS_P2;Temp;Humidity;BMP_temperature;BMP_pressure;BME280_temperature;BME280_humidity;BME280_pressure;Samples;Min_cycle;Max_cycle;Signal;HPM_P1;HPM_P2
2022/09/23 00:00:36;;;;;;;12.27;8.48;;;11.90;99.90;;;;;;5016450;28;20028;-84
2022/09/23 00:03:03;;;;;;;8.80;7.90;;;11.90;99.90;;;;;;5044790;28;20056;-82
2022/09/23 00:05:30;;;;;;;12.55;8.90;;;11.90;99.90;;;;;;5036388;28;20021;-84
2022/09/23 00:07:56;;;;;;;9.60;7.93;;;11.90;99.90;;;;;;5016049;28;20025;-85
2022/09/23 00:10:25;;;;;;;9.97;7.93;;;11.90;99.90;;;;;;5032325;28;20033;-84
2022/09/23 00:12:51;;;;;;;9.43;8.43;;;11.80;99.90;;;;;;5032236;28;20103;-88
2022/09/23 00:15:17;;;;;;;9.52;7.95;;;11.80;99.90;;;;;;5032976;28;20028;-84
2022/09/23 00:17:43;;;;;;;11.82;9.15;;;11.80;99.90;;;;;;5032908;28;20025;-84
2022/09/23 00:20:10;;;;;;;12.75;9.60;;;11.80;99.90;;;;;;5033249;28;20018;-83
2022/09/23 00:22:36;;;;;;;14.88;10.40;;;11.80;99.90;;;;;;5034315;28;20047;-83
2022/09/23 00:25:03;;;;;;;11.15;10.00;;;11.80;99.90;;;;;;5026612;28;20128;-83
2022/09/23 00:27:29;;;;;;;14.77;10.70;;;11.80;99.90;;;;;;5033673;28;20028;-85
2022/09/23 00:29:55;;;;;;;13.38;10.98;;;11.80;99.90;;;;;;5034788;28;20072;-83
2022/09/23 00:32:21;;;;;;;14.82;11.15;;;11.80;99.90;;;;;;5042713;28;20033;-82
2022/09/23 00:34:47;;;;;;;13.75;10.75;;;11.80;99.90;;;;;;5037208;28;20020;-85
2022/09/23 00:37:13;;;;;;;12.70;10.68;;;11.80;99.90;;;;;;5035817;28;20037;-87
2022/09/23 00:39:39;;;;;;;12.93;10.27;;;11.90;99.90;;;;;;5036232;28;20399;-86
2022/09/23 00:42:11;;;;;;;13.60;9.90;;;11.90;99.90;;;;;;5031202;28;20017;-83
2022/09/23 00:44:46;;;;;;;12.32;10.15;;;11.90;99.90;;;;;;5031694;28;20068;-82
2022/09/23 00:47:15;;;;;;;11.57;10.43;;;11.90;99.90;;;;;;5032211;28;20018;-83
2022/09/23 00:49:44;;;;;;;13.25;10.30;;;11.80;99.90;;;;;;5032388;28;20431;-84
2022/09/23 00:52:17;;;;;;;12.80;10.23;;;11.80;99.90;;;;;;5016156;28;20037;-82
2022/09/23 00:54:45;;;;;;;14.45;11.10;;;11.70;99.90;;;;;;5032836;28;20060;-84
2022/09/23 00:57:15;;;;;;;12.38;10.68;;;11.70;99.90;;;;;;5031912;28;20021;-83
2022/09/23 00:59:42;;;;;;;14.23;11.73;;;11.70;99.90;;;;;;5031024;28;20057;-84
2022/09/23 01:02:09;;;;;;;13.85;10.50;;;11.70;99.90;;;;;;5032246;28;20487;-86
2022/09/23 01:04:35;;;;;;;;;;;11.70;99.90;;;;;;5032653;28;20041;-86
2022/09/23 01:07:01;;;;;;;12.32;10.65;;;11.70;99.90;;;;;;5032241;28;19905;-84
2022/09/23 01:09:27;;;;;;;13.00;10.65;;;11.60;99.90;;;;;;5014596;28;20127;-85
2022/09/23 01:12:35;;;;;;;13.68;11.88;;;11.60;99.90;;;;;;5032296;28;20036;-84
2022/09/23 01:15:17;;;;;;;15.85;11.15;;;11.70;99.90;;;;;;4988087;28;20044;-83
2022/09/23 01:17:53;;;;;;;13.98;11.40;;;11.60;99.90;;;;;;5032473;28;20112;-83
2022/09/23 01:20:34;;;;;;;13.43;10.32;;;11.60;99.90;;;;;;5031536;28;20446;-86
2022/09/23 01:23:05;;;;;;;16.80;11.55;;;11.70;99.90;;;;;;5032510;28;20033;-84
2022/09/23 01:25:46;;;;;;;15.15;10.68;;;11.70;99.90;;;;;;5033849;28;20095;-85
2022/09/23 01:28:34;;;;;;;16.17;12.18;;;11.70;99.90;;;;;;5035622;28;20033;-84
2022/09/23 01:31:45;;;;;;;14.30;11.57;;;11.70;99.90;;;;;;5035229;28;20114;-83
2022/09/23 01:34:32;;;;;;;14.45;11.32;;;11.70;99.90;;;;;;5014495;28;20142;-83
2022/09/23 01:37:17;;;;;;;13.60;11.30;;;11.70;99.90;;;;;;5035740;28;20033;-83
2022/09/23 01:40:09;;;;;;;15.77;11.18;;;11.60;99.90;;;;;;5030617;28;20026;-84
2022/09/23 01:42:34;;;;;;;13.05;10.45;;;11.50;99.90;;;;;;5006424;28;20026;-82
2022/09/23 01:45:44;;;;;;;12.75;10.27;;;11.60;99.90;;;;;;5035433;28;20095;-83
2022/09/23 01:48:33;;;;;;;13.95;10.20;;;11.60;99.90;;;;;;5017060;28;20030;-84
2022/09/23 01:51:14;;;;;;;14.73;10.65;;;11.60;99.90;;;;;;5046764;28;20038;-83
2022/09/23 01:53:51;;;;;;;14.73;11.13;;;11.60;99.90;;;;;;5036118;28;20032;-83
2022/09/23 01:56:23;;;;;;;15.90;9.80;;;11.60;99.90;;;;;;5035172;28;20017;-84
2022/09/23 01:59:11;;;;;;;16.13;11.02;;;11.60;99.90;;;;;;5035080;28;20088;-85
2022/09/23 02:01:52;;;;;;;15.20;11.68;;;11.60;99.90;;;;;;5035462;28;20096;-84
2022/09/23 02:04:45;;;;;;;13.18;10.32;;;11.50;99.90;;;;;;5038104;28;20047;-84
2022/09/23 02:07:24;;;;;;;11.95;9.40;;;11.50;99.90;;;;;;5037831;28;20017;-84
2022/09/23 02:10:04;;;;;;;13.88;9.70;;;11.50;99.90;;;;;;5043670;28;20029;-84
2022/09/23 02:12:34;;;;;;;13.05;10.35;;;11.50;99.90;;;;;;5045796;28;20029;-84
2022/09/23 02:15:13;;;;;;;13.63;10.65;;;11.60;99.90;;;;;;5034687;28;20021;-85
2022/09/23 02:18:28;;;;;;;16.70;10.70;;;11.60;99.90;;;;;;5023185;28;20502;-85
2022/09/23 02:20:59;;;;;;;13.88;10.73;;;11.60;99.90;;;;;;5007516;28;20042;-83
2022/09/23 02:23:58;;;;;;;13.93;9.88;;;11.60;99.90;;;;;;5034463;28;20403;-85
2022/09/23 02:26:28;;;;;;;16.65;9.93;;;11.60;99.90;;;;;;5035299;28;20429;-85
2022/09/23 02:29:18;;;;;;;11.25;9.35;;;11.60;99.90;;;;;;5035236;28;20382;-86
2022/09/23 02:31:57;;;;;;;14.02;10.57;;;11.70;99.90;;;;;;5017058;28;20041;-87
2022/09/23 02:34:26;;;;;;;13.35;9.23;;;11.70;99.90;;;;;;5034108;28;20026;-87
2022/09/23 02:37:16;;;;;;;12.85;9.48;;;11.70;99.90;;;;;;5033817;28;20026;-86
2022/09/23 02:40:11;;;;;;;13.05;9.77;;;11.70;99.90;;;;;;5035399;28;20482;-86
2022/09/23 02:43:05;;;;;;;11.95;9.82;;;11.70;99.90;;;;;;5004782;28;20163;-87
2022/09/23 02:45:32;;;;;;;11.63;8.65;;;11.70;99.90;;;;;;5035248;28;20067;-84
2022/09/23 02:48:22;;;;;;;10.63;8.23;;;11.70;99.90;;;;;;5034765;28;20057;-85
2022/09/23 02:50:49;;;;;;;11.15;9.70;;;11.70;99.90;;;;;;5034260;28;20068;-84
2022/09/23 02:53:16;;;;;;;10.00;8.73;;;11.70;99.90;;;;;;5034737;28;20025;-86
2022/09/23 02:55:42;;;;;;;12.73;9.17;;;11.70;99.90;;;;;;5034207;28;20418;-84
2022/09/23 02:58:09;;;;;;;12.30;8.48;;;11.70;99.90;;;;;;5037043;28;20082;-85
2022/09/23 03:00:46;;;;;;;11.40;8.23;;;11.70;99.90;;;;;;5037608;28;20018;-85
2022/09/23 03:03:12;;;;;;;;;;;11.80;99.90;;;;;;5033838;28;20057;-83
2022/09/23 03:05:48;;;;;;;11.55;7.78;;;11.80;99.90;;;;;;5034346;28;20420;-87
2022/09/23 03:08:24;;;;;;;10.38;8.35;;;11.70;99.90;;;;;;5034488;28;20021;-84
2022/09/23 03:11:04;;;;;;;10.40;8.35;;;11.70;99.90;;;;;;5018493;28;20113;-86
2022/09/23 03:13:45;;;;;;;8.82;7.72;;;11.70;99.90;;;;;;5036585;28;20044;-87
2022/09/23 03:16:16;;;;;;;8.88;7.45;;;11.70;99.90;;;;;;5036348;28;20025;-86
2022/09/23 03:19:14;;;;;;;11.32;9.65;;;11.70;99.90;;;;;;5036411;28;20124;-87
2022/09/23 03:22:06;;;;;;;12.88;8.60;;;11.70;99.90;;;;;;5038473;28;20029;-86
2022/09/23 03:24:34;;;;;;;11.60;9.65;;;11.70;99.90;;;;;;5011779;28;20120;-87
2022/09/23 03:27:04;;;;;;;11.38;9.25;;;11.70;99.90;;;;;;5035391;28;20022;-87
2022/09/23 03:29:31;;;;;;;12.55;9.50;;;11.70;99.90;;;;;;5033251;28;20040;-88
2022/09/23 03:31:58;;;;;;;11.48;9.68;;;11.70;99.90;;;;;;5034214;28;20033;-86
2022/09/23 03:34:28;;;;;;;11.20;9.68;;;11.70;99.90;;;;;;5033921;28;20490;-86
2022/09/23 03:37:16;;;;;;;14.07;9.50;;;11.70;99.90;;;;;;5034316;28;20026;-85
2022/09/23 03:39:46;;;;;;;13.73;10.63;;;11.70;99.90;;;;;;5051064;28;20025;-86
2022/09/23 03:42:19;;;;;;;13.50;9.77;;;11.70;99.90;;;;;;5038143;28;20100;-84
2022/09/23 03:44:47;;;;;;;18.60;11.30;;;11.70;99.90;;;;;;5045902;28;20045;-85
2022/09/23 03:47:15;;;;;;;12.77;10.20;;;11.80;99.90;;;;;;5040604;28;20474;-85
2022/09/23 03:49:50;;;;;;;13.60;10.43;;;11.80;99.90;;;;;;5035121;28;20049;-86
2022/09/23 03:52:21;;;;;;;13.05;9.80;;;11.80;99.90;;;;;;5035205;28;20658;-88
2022/09/23 03:54:48;;;;;;;11.85;9.55;;;11.80;99.90;;;;;;5021539;28;20025;-85
2022/09/23 03:57:14;;;;;;;11.98;9.23;;;11.90;99.90;;;;;;5033173;28;20055;-86
2022/09/23 03:59:40;;;;;;;12.77;9.07;;;11.90;99.90;;;;;;5034181;28;20096;-86
2022/09/23 04:02:07;;;;;;;12.52;9.68;;;12.00;99.90;;;;;;5033689;28;20030;-85
2022/09/23 04:04:35;;;;;;;11.75;9.75;;;11.90;99.90;;;;;;5033832;28;20140;-85
2022/09/23 04:07:02;;;;;;;13.77;9.88;;;12.00;99.90;;;;;;5023066;28;20061;-84
2022/09/23 04:09:27;;;;;;;19.95;10.77;;;12.00;99.90;;;;;;5039775;28;20026;-83
2022/09/23 04:11:54;;;;;;;12.18;9.82;;;12.00;99.90;;;;;;5033499;28;20033;-87
2022/09/23 04:14:21;;;;;;;13.52;9.95;;;12.00;99.90;;;;;;5033511;28;20127;-83
2022/09/23 04:16:47;;;;;;;14.85;10.23;;;11.90;99.90;;;;;;5015479;28;20037;-84
2022/09/23 04:19:14;;;;;;;9.95;8.60;;;11.90;99.90;;;;;;5013948;28;20033;-84
2022/09/23 04:21:41;;;;;;;13.23;10.10;;;11.90;99.90;;;;;;5001350;28;20494;-83
2022/09/23 04:24:08;;;;;;;12.82;9.85;;;11.90;99.90;;;;;;5032564;28;20064;-84
2022/09/23 04:26:34;;;;;;;11.35;9.27;;;11.90;99.90;;;;;;5032247;28;20344;-84
2022/09/23 04:29:00;;;;;;;12.48;9.00;;;11.90;99.90;;;;;;5032575;28;20017;-84
2022/09/23 04:31:27;;;;;;;10.93;8.57;;;11.90;99.90;;;;;;5014851;28;20534;-85
2022/09/23 04:33:53;;;;;;;13.03;10.07;;;12.00;99.90;;;;;;5033001;28;20028;-84
2022/09/23 04:36:19;;;;;;;10.55;7.72;;;12.00;99.90;;;;;;5032775;28;20052;-85
2022/09/23 04:38:48;;;;;;;10.25;8.55;;;12.10;99.90;;;;;;5033392;28;20486;-84
2022/09/23 04:41:15;;;;;;;12.18;9.48;;;12.10;99.70;;;;;;5032391;28;20029;-85
2022/09/23 04:43:41;;;;;;;9.95;7.40;;;12.10;99.50;;;;;;5033285;28;20048;-85
2022/09/23 04:46:09;;;;;;;10.38;7.57;;;12.10;99.30;;;;;;5036004;28;20040;-85
2022/09/23 04:48:37;;;;;;;12.20;9.45;;;12.10;99.10;;;;;;5037327;28;20036;-85
2022/09/23 04:51:09;;;;;;;10.63;7.70;;;12.10;99.20;;;;;;5017764;28;20033;-87
2022/09/23 04:53:36;;;;;;;11.02;7.53;;;12.10;98.90;;;;;;5033818;28;20021;-87
2022/09/23 04:56:04;;;;;;;8.63;7.28;;;12.10;98.40;;;;;;5033354;28;20036;-85
2022/09/23 04:58:30;;;;;;;9.77;7.00;;;12.10;98.10;;;;;;5031568;28;20460;-85
2022/09/23 05:00:58;;;;;;;8.93;7.03;;;12.20;97.90;;;;;;5033979;28;20037;-84
2022/09/23 05:03:24;;;;;;;9.85;7.10;;;12.30;97.70;;;;;;5032468;28;20025;-84
2022/09/23 05:05:50;;;;;;;11.00;7.30;;;12.40;97.50;;;;;;5033073;28;20041;-85
2022/09/23 05:08:16;;;;;;;6.78;4.95;;;12.60;97.20;;;;;;5030582;28;20022;-86
2022/09/23 05:10:42;;;;;;;11.50;7.55;;;12.70;96.40;;;;;;5033814;28;20332;-86
2022/09/23 05:13:08;;;;;;;12.00;7.30;;;12.80;95.40;;;;;;5033532;28;20483;-86
2022/09/23 05:15:34;;;;;;;7.07;5.50;;;12.90;95.20;;;;;;5026594;28;20071;-86
2022/09/23 05:18:01;;;;;;;7.95;6.00;;;13.00;94.90;;;;;;5046201;28;20029;-86
2022/09/23 05:20:27;;;;;;;7.85;5.57;;;13.00;94.70;;;;;;5031395;28;20688;-86
2022/09/23 05:22:54;;;;;;;6.35;5.60;;;13.10;94.20;;;;;;5029583;28;20730;-86
2022/09/23 05:25:22;;;;;;;6.68;5.45;;;13.00;94.40;;;;;;5025070;28;20013;-86
2022/09/23 05:27:48;;;;;;;8.43;5.80;;;13.10;94.10;;;;;;5035130;28;20036;-87
2022/09/23 05:30:14;;;;;;;6.43;5.30;;;13.20;94.10;;;;;;5041140;28;20409;-87
2022/09/23 05:32:40;;;;;;;8.10;5.55;;;13.40;93.70;;;;;;5018134;28;20040;-87
2022/09/23 05:35:06;;;;;;;12.93;6.18;;;13.50;93.40;;;;;;5016535;28;20030;-85
2022/09/23 05:37:32;;;;;;;19.83;6.43;;;13.70;93.10;;;;;;5034497;28;20021;-87
2022/09/23 05:39:58;;;;;;;8.25;5.57;;;13.90;93.00;;;;;;5027228;28;20105;-86
2022/09/23 05:42:24;;;;;;;7.53;5.88;;;14.00;92.10;;;;;;5011793;28;20056;-85
2022/09/23 05:44:51;;;;;;;9.68;6.22;;;14.10;92.00;;;;;;5034540;28;20033;-85
2022/09/23 05:47:16;;;;;;;10.02;6.63;;;14.20;91.80;;;;;;5034963;28;20159;-84
2022/09/23 05:49:42;;;;;;;13.73;6.68;;;14.50;91.40;;;;;;5010656;28;20097;-86
2022/09/23 05:52:08;;;;;;;10.05;5.82;;;14.70;91.10;;;;;;5026601;28;20120;-85
2022/09/23 05:54:39;;;;;;;9.10;5.43;;;15.00;90.30;;;;;;5033351;28;20028;-85
2022/09/23 05:57:05;;;;;;;13.40;6.13;;;15.20;89.00;;;;;;5033144;28;20028;-87
2022/09/23 05:59:31;;;;;;;7.15;4.97;;;15.40;88.40;;;;;;5009945;28;20017;-84
2022/09/23 06:02:00;;;;;;;9.48;5.60;;;15.50;85.80;;;;;;5032049;28;20112;-85
2022/09/23 06:04:26;;;;;;;13.10;6.25;;;15.60;84.80;;;;;;5036075;28;20053;-86
2022/09/23 06:07:09;;;;;;;;;;;;;;;;;;;;;
2022/09/23 06:09:46;;;;;;;;;;;;;;;;;;;;;
2022/09/23 06:12:24;;;;;;;12.05;5.40;;;15.40;84.80;;;;;;5029604;28;20121;-90
2022/09/23 06:14:51;;;;;;;13.48;5.65;;;15.30;84.20;;;;;;5025180;28;20379;-90
2022/09/23 06:17:17;;;;;;;17.65;6.68;;;15.20;84.70;;;;;;5018528;28;20095;-88
2022/09/23 06:19:43;;;;;;;12.60;6.63;;;15.00;84.90;;;;;;5036701;28;20208;-86
2022/09/23 06:22:10;;;;;;;15.73;7.97;;;15.00;85.50;;;;;;5039190;28;20063;-85
2022/09/23 06:24:36;;;;;;;12.65;7.50;;;14.90;85.90;;;;;;5018706;28;20111;-86
2022/09/23 06:27:05;;;;;;;13.60;6.00;;;14.80;86.30;;;;;;5040585;28;20410;-89
2022/09/23 06:29:31;;;;;;;17.83;6.95;;;14.70;87.00;;;;;;5038930;28;20486;-87
2022/09/23 06:31:58;;;;;;;12.73;6.65;;;14.60;86.90;;;;;;5040103;28;20029;-89
2022/09/23 06:34:24;;;;;;;7.70;6.00;;;14.50;87.70;;;;;;5017568;28;20041;-88
2022/09/23 06:36:50;;;;;;;10.20;6.50;;;14.50;88.40;;;;;;5034665;28;20430;-88
2022/09/23 06:39:16;;;;;;;14.63;6.05;;;14.50;88.20;;;;;;5037255;28;20375;-87
2022/09/23 06:41:43;;;;;;;11.35;6.00;;;14.60;87.60;;;;;;5025817;28;20030;-90
2022/09/23 06:44:13;;;;;;;7.05;5.38;;;14.70;86.40;;;;;;5038379;28;20045;-90
2022/09/23 06:46:39;;;;;;;8.60;6.53;;;14.80;86.10;;;;;;5039366;28;20356;-86
2022/09/23 06:49:04;;;;;;;9.70;6.85;;;14.70;86.60;;;;;;5038752;28;20021;-87
2022/09/23 06:51:30;;;;;;;9.18;7.07;;;14.60;87.80;;;;;;5039275;28;20026;-88
2022/09/23 06:53:56;;;;;;;7.05;5.40;;;14.40;88.10;;;;;;5051181;28;20059;-87
2022/09/23 06:56:22;;;;;;;6.75;5.60;;;14.30;88.30;;;;;;5036479;28;20498;-88
2022/09/23 06:58:50;;;;;;;13.35;7.72;;;14.10;88.80;;;;;;5021300;28;20029;-88
2022/09/23 07:01:17;;;;;;;11.80;6.82;;;14.10;89.30;;;;;;5040258;28;20032;-88
2022/09/23 07:03:44;;;;;;;8.57;6.90;;;14.00;90.00;;;;;;5019914;28;20532;-88
2022/09/23 07:06:11;;;;;;;7.85;6.70;;;14.20;90.20;;;;;;5036942;28;20009;-88
2022/09/23 07:08:37;;;;;;;18.20;10.43;;;14.20;90.20;;;;;;5025558;28;20552;-87
2022/09/23 07:11:06;;;;;;;8.77;6.85;;;14.10;90.10;;;;;;5036090;28;20052;-88
2022/09/23 07:13:32;;;;;;;11.10;8.18;;;14.00;90.40;;;;;;5038571;28;20036;-89
2022/09/23 07:16:00;;;;;;;9.20;7.32;;;13.90;90.70;;;;;;5051011;28;20037;-88
2022/09/23 07:18:29;;;;;;;12.05;7.20;;;13.70;91.20;;;;;;5029116;28;20530;-87
2022/09/23 07:20:57;;;;;;;12.55;8.50;;;13.60;91.60;;;;;;5017791;28;20025;-88
2022/09/23 07:23:26;;;;;;;14.07;7.68;;;13.60;91.90;;;;;;5035303;28;20029;-87
2022/09/23 07:25:52;;;;;;;17.15;8.88;;;13.60;92.50;;;;;;5036128;28;20032;-88
2022/09/23 07:28:18;;;;;;;12.05;8.00;;;13.70;92.20;;;;;;5035709;28;20116;-87
2022/09/23 07:30:45;;;;;;;14.32;7.55;;;13.80;92.00;;;;;;5039056;28;20058;-87
2022/09/23 07:33:11;;;;;;;8.23;6.00;;;13.80;91.70;;;;;;5037949;28;20536;-87
2022/09/23 07:35:42;;;;;;;17.38;7.82;;;13.80;91.20;;;;;;5018242;28;20022;-87
2022/09/23 07:38:10;;;;;;;14.52;7.70;;;13.80;91.70;;;;;;5036011;28;20044;-89
2022/09/23 07:40:38;;;;;;;24.05;10.10;;;13.90;91.90;;;;;;5038153;28;20018;-86
2022/09/23 07:43:07;;;;;;;26.10;9.77;;;13.90;92.10;;;;;;5035555;28;20045;-85
2022/09/23 07:45:34;;;;;;;19.67;8.60;;;13.90;92.00;;;;;;5035411;28;20032;-87
2022/09/23 07:48:00;;;;;;;24.52;9.13;;;13.90;91.90;;;;;;5040027;28;20364;-86
2022/09/23 07:50:27;;;;;;;11.63;8.32;;;14.00;92.20;;;;;;5027693;28;20021;-89
2022/09/23 07:52:53;;;;;;;21.77;8.82;;;14.00;91.50;;;;;;5019214;28;20507;-87
2022/09/23 07:55:19;;;;;;;17.23;8.85;;;13.90;91.70;;;;;;5035957;28;20060;-88
2022/09/23 07:57:45;;;;;;;13.98;8.98;;;14.00;91.90;;;;;;5021646;28;20072;-86
2022/09/23 08:00:12;;;;;;;23.45;9.65;;;14.00;91.60;;;;;;5038947;28;20018;-86
2022/09/23 08:02:39;;;;;;;16.67;8.73;;;14.00;90.80;;;;;;5036412;28;20076;-87
2022/09/23 08:05:06;;;;;;;28.65;9.38;;;13.90;91.20;;;;;;5038101;28;20026;-87
2022/09/23 08:07:33;;;;;;;14.52;7.88;;;13.90;91.50;;;;;;5042614;28;20075;-87
2022/09/23 08:10:00;;;;;;;19.17;7.85;;;13.90;91.30;;;;;;5043326;28;20399;-87
2022/09/23 08:12:28;;;;;;;15.55;8.70;;;14.00;91.30;;;;;;5025069;28;20081;-86
2022/09/23 08:14:54;;;;;;;16.63;8.43;;;14.10;90.90;;;;;;5018282;28;20593;-86
2022/09/23 08:17:20;;;;;;;9.25;7.22;;;14.30;90.90;;;;;;5036408;28;20026;-87
2022/09/23 08:19:46;;;;;;;9.93;7.63;;;14.60;90.30;;;;;;5036602;28;20014;-87
2022/09/23 08:22:11;;;;;;;9.20;8.27;;;14.80;88.80;;;;;;5038392;28;20048;-88
2022/09/23 08:24:37;;;;;;;21.13;9.20;;;14.90;88.60;;;;;;5037059;28;20036;-90
2022/09/23 08:27:03;;;;;;;27.15;10.85;;;14.80;88.40;;;;;;5049626;28;20025;-87
2022/09/23 08:29:29;;;;;;;17.55;8.60;;;14.60;88.80;;;;;;5035403;28;20145;-88
2022/09/23 08:31:55;;;;;;;20.80;8.70;;;14.60;89.60;;;;;;5039789;28;20059;-86
2022/09/23 08:34:22;;;;;;;14.25;8.23;;;14.50;89.30;;;;;;5022554;28;20387;-86
2022/09/23 08:36:49;;;;;;;13.55;8.45;;;14.50;88.50;;;;;;5041140;28;20084;-86
2022/09/23 08:39:19;;;;;;;34.47;10.13;;;14.40;88.90;;;;;;5043614;28;20102;-90
2022/09/23 08:42:06;;;;;;;27.52;9.48;;;14.50;88.70;;;;;;5035434;28;20033;-87
2022/09/23 08:44:41;;;;;;;9.90;6.95;;;14.40;88.10;;;;;;5023500;28;20117;-87
2022/09/23 08:47:20;;;;;;;18.08;8.32;;;14.30;88.70;;;;;;5015154;28;20033;-88
2022/09/23 08:49:58;;;;;;;22.80;7.97;;;14.30;88.60;;;;;;5033609;28;20021;-88
2022/09/23 08:52:42;;;;;;;17.20;7.47;;;14.30;89.00;;;;;;5033719;28;20045;-89
2022/09/23 08:55:13;;;;;;;19.60;8.98;;;14.20;89.10;;;;;;5033978;28;20104;-87
2022/09/23 08:57:48;;;;;;;14.23;7.47;;;14.20;89.90;;;;;;5035983;28;20022;-87
2022/09/23 09:00:22;;;;;;;11.77;7.03;;;14.10;89.80;;;;;;5033642;28;20029;-89
2022/09/23 09:02:49;;;;;;;12.27;8.73;;;14.00;89.80;;;;;;5038105;28;20021;-87
2022/09/23 09:05:21;;;;;;;11.70;6.10;;;14.00;90.00;;;;;;5048901;28;20009;-87
2022/09/23 09:07:48;;;;;;;16.15;9.50;;;13.90;89.40;;;;;;5019701;28;20018;-87
2022/09/23 09:10:38;;;;;;;8.90;6.45;;;13.90;90.00;;;;;;5016608;28;20025;-87
2022/09/23 09:13:29;;;;;;;12.63;7.00;;;13.90;90.20;;;;;;5019136;28;20041;-86
2022/09/23 09:16:18;;;;;;;12.82;7.45;;;13.90;90.40;;;;;;5020271;28;20022;-85
2022/09/23 09:19:04;;;;;;;12.98;7.18;;;13.90;90.60;;;;;;5035772;28;20552;-85
2022/09/23 09:22:12;;;;;;;12.27;6.88;;;14.10;90.50;;;;;;5037680;28;20022;-87
2022/09/23 09:24:39;;;;;;;13.63;7.88;;;14.40;89.20;;;;;;5027909;28;20034;-86
2022/09/23 09:27:18;;;;;;;13.27;7.25;;;14.50;88.70;;;;;;5034909;28;20386;-87
2022/09/23 09:30:12;;;;;;;13.70;6.10;;;14.80;88.10;;;;;;5027082;28;20034;-88
2022/09/23 09:32:47;;;;;;;17.13;7.68;;;15.00;86.80;;;;;;5035567;28;20052;-86
2022/09/23 09:35:56;;;;;;;7.40;5.97;;;15.20;85.40;;;;;;5016813;28;20018;-89
2022/09/23 09:38:22;;;;;;;8.98;6.38;;;15.40;84.60;;;;;;5015727;28;20541;-87
2022/09/23 09:40:48;;;;;;;14.57;7.70;;;15.40;82.70;;;;;;5017258;28;20025;-90
2022/09/23 09:43:22;;;;;;;17.90;7.15;;;15.20;82.60;;;;;;5034209;28;20057;-90
2022/09/23 09:46:00;;;;;;;12.23;6.00;;;15.10;83.20;;;;;;5037613;28;20025;-88
2022/09/23 09:48:39;;;;;;;10.00;5.30;;;14.90;83.50;;;;;;5038266;28;20075;-86
2022/09/23 09:51:26;;;;;;;13.57;6.93;;;14.70;84.20;;;;;;5008312;28;20032;-86
2022/09/23 09:53:53;;;;;;;10.25;6.13;;;14.60;85.30;;;;;;5027210;28;20033;-87
2022/09/23 09:56:26;;;;;;;11.43;6.05;;;14.60;85.50;;;;;;5041410;28;20457;-87
2022/09/23 09:58:59;;;;;;;7.15;5.45;;;14.70;84.30;;;;;;5039285;28;20030;-88
2022/09/23 10:01:32;;;;;;;11.27;5.82;;;14.70;83.90;;;;;;5044842;28;20018;-87
2022/09/23 10:04:01;;;;;;;12.55;5.25;;;14.90;84.30;;;;;;5052094;28;20033;-88
2022/09/23 10:06:32;;;;;;;6.80;5.30;;;15.10;83.30;;;;;;5048228;28;20017;-89
2022/09/23 10:09:04;;;;;;;7.40;5.07;;;15.20;82.10;;;;;;5021514;28;20378;-89
2022/09/23 10:11:31;;;;;;;10.93;5.72;;;15.10;80.80;;;;;;5028907;28;20041;-88
2022/09/23 10:14:17;;;;;;;11.52;4.68;;;14.90;81.30;;;;;;5021928;28;20022;-85
2022/09/23 10:16:46;;;;;;;10.73;5.20;;;14.90;81.70;;;;;;5040583;28;20025;-88
2022/09/23 10:19:33;;;;;;;7.85;5.00;;;14.70;82.20;;;;;;5042239;28;20096;-88
2022/09/23 10:22:04;;;;;;;7.78;5.20;;;14.60;83.10;;;;;;5027443;28;20029;-87
2022/09/23 10:24:35;;;;;;;7.53;5.10;;;14.60;83.20;;;;;;5019801;28;20416;-88
2022/09/23 10:27:07;;;;;;;7.35;5.57;;;14.60;83.20;;;;;;5020560;28;20030;-86
2022/09/23 10:29:36;;;;;;;9.10;5.35;;;14.70;82.90;;;;;;5038829;28;20044;-88
2022/09/23 10:32:42;;;;;;;8.00;4.97;;;14.60;82.50;;;;;;5040514;28;20086;-88
2022/09/23 10:35:08;;;;;;;8.45;6.10;;;14.50;83.60;;;;;;5022653;28;20028;-89
2022/09/23 10:37:34;;;;;;;9.63;6.35;;;14.70;83.50;;;;;;5039170;28;20104;-89
2022/09/23 10:46:46;;;;;;;13.10;6.18;;;14.70;81.80;;;;;;5037611;28;20091;-89
2022/09/23 10:49:35;;;;;;;13.13;6.38;;;14.70;81.50;;;;;;5041333;28;20140;-88
2022/09/23 10:52:19;;;;;;;12.27;6.78;;;14.80;82.10;;;;;;5019540;28;20047;-87
2022/09/23 10:55:00;;;;;;;8.73;6.68;;;14.90;82.30;;;;;;5029922;28;20017;-87
2022/09/23 10:57:41;;;;;;;7.97;6.20;;;14.80;82.30;;;;;;5035331;28;20387;-88
2022/09/23 11:00:25;;;;;;;13.65;7.00;;;14.90;82.50;;;;;;5035376;28;20018;-88
2022/09/23 11:02:51;;;;;;;11.90;6.18;;;14.90;82.30;;;;;;5035372;28;20028;-88
2022/09/23 11:05:23;;;;;;;8.73;6.70;;;14.90;81.40;;;;;;5036178;28;20034;-87
2022/09/23 11:08:09;;;;;;;14.98;6.80;;;14.90;81.90;;;;;;5032400;28;20049;-87
2022/09/23 11:10:48;;;;;;;11.40;7.03;;;15.00;81.60;;;;;;5018160;28;20043;-88
2022/09/23 11:13:39;;;;;;;9.65;6.50;;;15.10;81.40;;;;;;5024889;28;20045;-88
2022/09/23 11:16:13;;;;;;;7.60;6.63;;;15.20;80.90;;;;;;5039937;28;20021;-87
2022/09/23 11:19:33;;;;;;;9.82;6.63;;;15.10;81.00;;;;;;5029989;28;20041;-88
2022/09/23 11:22:36;;;;;;;10.80;5.68;;;15.10;80.70;;;;;;4995050;28;20102;-87
2022/09/23 11:25:17;;;;;;;10.13;5.35;;;15.20;78.70;;;;;;4996821;28;20391;-88
2022/09/23 11:27:52;;;;;;;9.57;5.13;;;15.30;78.30;;;;;;5033224;28;20021;-89
2022/09/23 11:30:19;;;;;;;6.72;5.78;;;15.50;78.00;;;;;;5047800;28;20081;-87
2022/09/23 11:33:26;;;;;;;6.32;5.28;;;15.60;76.10;;;;;;5052611;28;20068;-87
2022/09/23 11:36:00;;;;;;;9.05;5.65;;;15.70;76.30;;;;;;5026732;28;20159;-87
2022/09/23 11:38:39;;;;;;;8.65;4.30;;;15.70;75.50;;;;;;5041530;28;20109;-87
2022/09/23 11:41:20;;;;;;;7.60;4.53;;;15.60;74.80;;;;;;5050546;28;20085;-87
2022/09/23 11:44:07;;;;;;;6.25;5.07;;;15.40;74.70;;;;;;5036508;28;20052;-88
2022/09/23 11:46:40;;;;;;;5.63;4.20;;;15.30;74.90;;;;;;5025713;28;20518;-90
2022/09/23 11:49:14;;;;;;;7.20;4.43;;;15.30;75.10;;;;;;5020249;28;20029;-86
2022/09/23 11:51:58;;;;;;;6.45;4.80;;;15.30;74.10;;;;;;5036011;28;20324;-90
2022/09/23 11:54:30;;;;;;;16.52;5.75;;;15.20;73.80;;;;;;5033394;28;20431;-88
2022/09/23 11:57:00;;;;;;;7.25;3.75;;;15.10;73.60;;;;;;5019122;28;20475;-87
2022/09/23 11:59:48;;;;;;;12.52;5.53;;;15.10;73.70;;;;;;5048317;28;20040;-85
2022/09/23 12:02:49;;;;;;;10.70;5.20;;;15.00;74.20;;;;;;5047270;28;20014;-87
2022/09/23 12:05:20;;;;;;;9.35;5.53;;;14.90;75.00;;;;;;4940288;29;20031;-88
2022/09/23 12:08:25;;;;;;;6.82;5.00;;;14.90;73.70;;;;;;5015320;28;20134;-87
2022/09/23 12:11:19;;;;;;;7.85;4.72;;;14.90;73.70;;;;;;4963979;29;20023;-87
2022/09/23 12:13:54;;;;;;;8.70;4.40;;;14.90;73.50;;;;;;4955338;29;20090;-88
2022/09/23 12:16:22;;;;;;;5.30;3.50;;;14.70;73.70;;;;;;4954357;29;20035;-87
2022/09/23 12:19:04;;;;;;;8.23;4.30;;;14.70;72.70;;;;;;4956359;29;20222;-88
2022/09/23 12:21:45;;;;;;;6.82;4.43;;;14.70;73.50;;;;;;4953902;29;20039;-88
2022/09/23 12:24:44;;;;;;;5.68;4.65;;;14.80;73.30;;;;;;4962167;28;20025;-87
2022/09/23 12:27:22;;;;;;;6.13;4.80;;;15.00;73.10;;;;;;4954683;29;20023;-87
2022/09/23 12:29:54;;;;;;;6.05;4.72;;;15.20;73.10;;;;;;4954998;29;20042;-91
2022/09/23 12:32:20;;;;;;;4.60;4.00;;;15.30;71.10;;;;;;4946412;29;20126;-89
2022/09/23 12:34:50;;;;;;;4.40;4.00;;;15.30;70.90;;;;;;4948670;29;20082;-87
2022/09/23 12:37:36;;;;;;;8.48;4.45;;;15.30;70.80;;;;;;4956032;29;20023;-87
2022/09/23 12:40:21;;;;;;;10.73;4.75;;;15.40;70.70;;;;;;4960004;29;20038;-89
2022/09/23 12:42:48;;;;;;;13.13;5.32;;;15.40;70.80;;;;;;5043801;28;20050;-87
2022/09/23 12:45:33;;;;;;;13.05;5.30;;;15.30;70.40;;;;;;5034331;28;20033;-88
2022/09/23 12:48:23;;;;;;;8.32;4.90;;;15.10;71.30;;;;;;5025061;28;20022;-87
2022/09/23 12:51:07;;;;;;;6.22;4.68;;;15.10;71.50;;;;;;5036918;28;20051;-87
2022/09/23 12:53:33;;;;;;;8.98;5.22;;;15.00;72.30;;;;;;5039509;28;20224;-87
2022/09/23 12:56:01;;;;;;;9.50;4.75;;;14.90;72.40;;;;;;5036885;28;20110;-88
2022/09/23 12:59:14;;;;;;;6.22;5.10;;;14.70;73.30;;;;;;5017649;28;20422;-89
2022/09/23 13:01:40;;;;;;;8.77;5.60;;;14.70;74.10;;;;;;5034881;28;20057;-87
2022/09/23 13:07:33;;;;;;;;;;;14.50;75.90;;;;;;5033829;28;20060;-85
2022/09/23 13:10:28;;;;;;;8.73;6.20;;;14.40;76.40;;;;;;5032302;28;19912;-89
2022/09/23 13:12:56;;;;;;;8.63;5.88;;;14.40;77.30;;;;;;5037655;28;20037;-89
2022/09/23 13:15:32;;;;;;;25.27;8.73;;;14.40;77.80;;;;;;5049312;28;20140;-88
2022/09/23 13:18:20;;;;;;;11.13;6.78;;;14.50;78.10;;;;;;5036099;28;20061;-87
2022/09/23 13:20:55;;;;;;;12.75;8.23;;;14.50;78.30;;;;;;5019048;28;20030;-87
2022/09/23 13:23:31;;;;;;;12.45;7.47;;;14.40;78.90;;;;;;5037967;28;20104;-88